Kauhale Kai — V7MC9 — position and weather

sailwx.info

Track history (hours):
 
Tides and Currents Weather Stations Pressure Air Temp Water Temp Dewpoint Dewpoint Depression Visibility Wind Speed Wind Dir Waves Ship Positions

Kauhale Kai

Last reported at 2018-Feb-18 16:44 UTC. Time now 2018-Feb-19 14:35 UTC.
Position N 23°38' W 075°55'.

; draft 2.8 m.

Type: Pleasure craft. MMSI: 538070338.

Date/timePositionNaut miles runAvg speedWind from/ knotsBaromVisibWave heightAir tempDewpointWater temp
2018-Feb-18 16:44N 23°38' W 075°55'0 0.0
2018-Feb-18 16:28N 23°38' W 075°55'0 0.0
2018-Feb-18 16:00N 23°38' W 075°55'0 0.0
2018-Feb-18 15:31N 23°38' W 075°55'0 0.0
2018-Feb-18 15:01N 23°38' W 075°55'0 0.0
2018-Feb-18 14:31N 23°38' W 075°55'0 0.0
2018-Feb-18 14:00N 23°38' W 075°55'0 0.0
2018-Feb-18 13:31N 23°38' W 075°55'0 0.0
2018-Feb-18 13:00N 23°38' W 075°55'0 0.0
2018-Feb-18 12:30N 23°38' W 075°55'0 0.0
2018-Feb-18 12:01N 23°38' W 075°55'0 0.0
2018-Feb-18 11:31N 23°38' W 075°55'0 0.2
2018-Feb-18 11:01N 23°38' W 075°55'2 3.7
2018-Feb-18 10:31N 23°39' W 075°53'4 8.0
2018-Feb-18 10:00N 23°40' W 075°49'4 8.3
2018-Feb-18 09:30N 23°41' W 075°44'  
2018-Feb-15 21:12N 23°44' W 075°40'2 7.6
2018-Feb-15 20:59N 23°44' W 075°41'4 7.6
2018-Feb-15 20:30N 23°42' W 075°45'4 7.6
2018-Feb-15 19:59N 23°41' W 075°49'4 7.6
2018-Feb-15 19:30N 23°39' W 075°53'3 5.3
2018-Feb-15 19:00N 23°38' W 075°55'0 0.0
2018-Feb-15 18:30N 23°38' W 075°55'0 0.0
2018-Feb-15 18:00N 23°38' W 075°55'0 0.0
2018-Feb-15 17:30N 23°38' W 075°55'0 0.0
2018-Feb-15 17:00N 23°38' W 075°55'0 0.0
2018-Feb-15 16:30N 23°38' W 075°55'0 0.0
2018-Feb-15 16:00N 23°38' W 075°55'0 0.0
2018-Feb-15 15:30N 23°38' W 075°55'  
2018-Feb-10 14:18N 23°38' W 075°55'  
Track history (hours):
 
Tides and Currents Weather Stations Pressure Air Temp Water Temp Dewpoint Dewpoint Depression Visibility Wind Speed Wind Dir Waves Ship Positions

Kauhale Kai

Last reported at 2018-Feb-18 16:44 UTC. Time now 2018-Feb-19 14:35 UTC.
Position N 23°38' W 075°55'.

; draft 2.8 m.

Type: Pleasure craft. MMSI: 538070338.

Date/timePositionNaut miles runAvg speedWind from/ knotsBaromVisibWave heightAir tempDewpointWater temp
2018-Feb-18 16:44N 23°38' W 075°55'0 0.0
2018-Feb-18 16:28N 23°38' W 075°55'0 0.0
2018-Feb-18 16:00N 23°38' W 075°55'0 0.0
2018-Feb-18 15:31N 23°38' W 075°55'0 0.0
2018-Feb-18 15:01N 23°38' W 075°55'0 0.0
2018-Feb-18 14:31N 23°38' W 075°55'0 0.0
2018-Feb-18 14:00N 23°38' W 075°55'0 0.0
2018-Feb-18 13:31N 23°38' W 075°55'0 0.0
2018-Feb-18 13:00N 23°38' W 075°55'0 0.0
2018-Feb-18 12:30N 23°38' W 075°55'0 0.0
2018-Feb-18 12:01N 23°38' W 075°55'0 0.0
2018-Feb-18 11:31N 23°38' W 075°55'0 0.2
2018-Feb-18 11:01N 23°38' W 075°55'2 3.7
2018-Feb-18 10:31N 23°39' W 075°53'4 8.0
2018-Feb-18 10:00N 23°40' W 075°49'4 8.3
2018-Feb-18 09:30N 23°41' W 075°44'  
2018-Feb-15 21:12N 23°44' W 075°40'2 7.6
2018-Feb-15 20:59N 23°44' W 075°41'4 7.6
2018-Feb-15 20:30N 23°42' W 075°45'4 7.6
2018-Feb-15 19:59N 23°41' W 075°49'4 7.6
2018-Feb-15 19:30N 23°39' W 075°53'3 5.3
2018-Feb-15 19:00N 23°38' W 075°55'0 0.0
2018-Feb-15 18:30N 23°38' W 075°55'0 0.0
2018-Feb-15 18:00N 23°38' W 075°55'0 0.0
2018-Feb-15 17:30N 23°38' W 075°55'0 0.0
2018-Feb-15 17:00N 23°38' W 075°55'0 0.0
2018-Feb-15 16:30N 23°38' W 075°55'0 0.0
2018-Feb-15 16:00N 23°38' W 075°55'0 0.0
2018-Feb-15 15:30N 23°38' W 075°55'  
2018-Feb-10 14:18N 23°38' W 075°55'  

Dump ship's entire track history